Terminal Aerodrome Forecast
Issued by NWS Topeka, KS

Home | Current Version | Previous Version | Text Only | Print | Product List | Glossary On
Versions: 1 2 3 4 5 6 7 8 9 10 11 12 13 14 15 16 17 18 19 20 21 22 23
000
FTUS43 KTOP 152000 AAA
TAFTOP
TAF AMD
KTOP 152002Z 1520/1618 29018G26KT P6SM OVC012
     FM152300 31018G26KT P6SM OVC022
     FM161400 33014G21KT P6SM SCT030=

USA.gov is the U.S. government's official web portal to all federal, state and local government web resources and services.